Terminal Aerodrome Forecast
Issued by NWS Louisville, KY

Home | Current Version | Previous Version | Text Only | Print | Product List | Glossary On
Versions: 1 2 3 4 5 6 7 8 9 10 11 12 13 14 15 16 17 18 19 20
000
FTUS43 KLMK 011900 AAA
TAFSDF
TAF AMD
KSDF 011951Z 0120/0224 29005KT 3SM BR VCSH BKN009
     FM020900 33006KT 6SM BR SCT009 OVC015
     FM021200 01008KT P6SM SCT015 SCT025 BKN035=

USA.gov is the U.S. government's official web portal to all federal, state and local government web resources and services.